createdAt,value
2022-10-18T00:02:27.237Z,2.30
2022-10-18T00:04:56.336Z,1.80
2022-10-18T00:07:25.302Z,2.25
2022-10-18T00:09:54.298Z,1.70
2022-10-18T00:12:23.323Z,2.55
2022-10-18T00:14:52.557Z,2.50
2022-10-18T00:17:21.444Z,2.42
2022-10-18T00:19:51.906Z,3.58
2022-10-18T00:22:21.905Z,1.70
2022-10-18T00:24:51.553Z,2.50
2022-10-18T00:27:20.540Z,2.28
2022-10-18T00:29:49.867Z,1.92
2022-10-18T00:32:18.749Z,2.80
2022-10-18T00:34:47.641Z,2.50
2022-10-18T00:37:18.276Z,2.25
2022-10-18T00:39:47.538Z,1.65
2022-10-18T00:42:18.159Z,1.92
2022-10-18T00:45:03.099Z,2.30
2022-10-18T00:47:32.550Z,1.95
2022-10-18T00:50:03.900Z,1.92
2022-10-18T00:52:42.234Z,1.90
2022-10-18T00:55:12.083Z,1.60
2022-10-18T00:57:42.511Z,1.73
2022-10-18T01:00:12.153Z,1.92
2022-10-18T01:02:42.469Z,1.83
2022-10-18T01:05:12.755Z,2.78
2022-10-18T01:07:52.132Z,2.05
2022-10-18T01:10:26.971Z,1.92
2022-10-18T01:13:02.959Z,1.70
2022-10-18T01:15:33.238Z,1.65
2022-10-18T01:18:06.181Z,1.58
2022-10-18T01:20:46.996Z,1.55
2022-10-18T01:23:19.607Z,1.63
2022-10-18T01:25:53.495Z,1.73
2022-10-18T01:28:29.246Z,1.70
2022-10-18T01:31:01.422Z,2.22
2022-10-18T01:33:36.371Z,1.85
2022-10-18T01:36:08.353Z,2.53
2022-10-18T01:41:08.008Z,3.05
2022-10-18T01:43:38.961Z,2.63
2022-10-18T01:46:10.144Z,1.90
2022-10-18T01:48:39.176Z,2.60
2022-10-18T01:51:08.276Z,2.55
2022-10-18T01:53:37.622Z,2.38
2022-10-18T01:56:12.384Z,3.33
2022-10-18T01:58:43.632Z,1.92
2022-10-18T02:01:20.116Z,2.20
2022-10-18T02:03:51.647Z,2.35
2022-10-18T02:06:22.115Z,2.47
2022-10-18T02:08:53.897Z,2.85
2022-10-18T02:11:23.149Z,3.47
2022-10-18T02:13:53.882Z,2.33
2022-10-18T02:16:25.210Z,2.92
2022-10-18T02:18:56.951Z,2.20
2022-10-18T02:21:27.694Z,1.95
2022-10-18T02:23:57.029Z,2.10
2022-10-18T02:26:26.049Z,2.95
2022-10-18T02:28:55.083Z,2.28
2022-10-18T02:31:28.114Z,2.70
2022-10-18T02:33:59.029Z,1.80
2022-10-18T02:36:29.706Z,2.55
2022-10-18T02:39:02.771Z,2.40
2022-10-18T02:41:32.693Z,1.48
2022-10-18T02:44:01.585Z,1.35
2022-10-18T02:46:31.863Z,2.20
2022-10-18T02:49:00.799Z,2.13
2022-10-18T02:51:29.813Z,1.92
2022-10-18T02:53:58.678Z,1.90
2022-10-18T02:56:27.712Z,1.67
2022-10-18T02:58:56.680Z,2.58
2022-10-18T03:01:25.625Z,1.65
2022-10-18T03:03:55.974Z,1.65
2022-10-18T03:06:24.959Z,1.95
2022-10-18T03:08:53.969Z,1.73
2022-10-18T03:11:23.669Z,1.85
2022-10-18T03:13:52.921Z,1.17
2022-10-18T03:16:21.878Z,1.80
2022-10-18T03:18:50.804Z,1.80
2022-10-18T03:21:21.037Z,1.80
2022-10-18T03:23:49.938Z,2.55
2022-10-18T03:26:18.921Z,1.63
2022-10-18T03:28:47.853Z,2.40
2022-10-18T03:31:16.954Z,1.92
2022-10-18T03:33:46.247Z,1.48
2022-10-18T03:36:15.295Z,2.30
2022-10-18T03:38:45.638Z,2.25
2022-10-18T03:41:14.601Z,2.10
2022-10-18T03:43:43.596Z,2.78
2022-10-18T03:46:12.473Z,1.77
2022-10-18T03:48:41.446Z,1.27
2022-10-18T03:51:10.333Z,2.78
2022-10-18T03:53:39.470Z,1.45
2022-10-18T03:56:09.898Z,2.15
2022-10-18T03:58:38.917Z,1.45
2022-10-18T04:01:07.910Z,3.42
2022-10-18T04:03:36.795Z,2.80
2022-10-18T04:06:05.804Z,1.83
2022-10-18T04:08:34.819Z,1.80
2022-10-18T04:11:08.237Z,1.45
2022-10-18T04:13:39.203Z,2.58
2022-10-18T04:16:08.476Z,1.50
2022-10-18T04:18:37.534Z,1.45
2022-10-18T04:21:06.840Z,1.30
2022-10-18T04:23:38.670Z,1.83
2022-10-18T04:26:08.534Z,1.58
2022-10-18T04:28:40.214Z,1.52
2022-10-18T04:33:38.073Z,1.50
2022-10-18T04:36:07.256Z,2.17
2022-10-18T04:38:36.477Z,1.63
2022-10-18T04:41:05.430Z,1.40
2022-10-18T04:43:34.537Z,2.50
2022-10-18T04:46:04.907Z,1.70
2022-10-18T04:48:33.914Z,1.40
2022-10-18T04:51:02.844Z,2.40
2022-10-18T04:53:31.807Z,1.27
2022-10-18T04:56:00.836Z,1.63
2022-10-18T04:58:29.808Z,2.05
2022-10-18T05:00:58.903Z,2.15
2022-10-18T05:03:29.331Z,1.48
2022-10-18T05:06:01.628Z,1.77
2022-10-18T05:08:32.114Z,1.77
2022-10-18T05:11:01.742Z,2.10
2022-10-18T05:13:31.450Z,1.70
2022-10-18T05:16:00.921Z,2.50
2022-10-18T05:18:31.395Z,2.00
2022-10-18T05:21:00.342Z,1.60
2022-10-18T05:23:29.779Z,1.85
2022-10-18T05:26:02.898Z,2.25
2022-10-18T05:28:39.699Z,1.63
2022-10-18T05:31:10.637Z,1.95
2022-10-18T05:33:41.060Z,1.70
2022-10-18T05:36:10.700Z,1.73
2022-10-18T05:38:42.247Z,2.00
2022-10-18T05:41:11.663Z,2.67
2022-10-18T05:43:40.667Z,1.85
2022-10-18T05:46:14.545Z,2.40
2022-10-18T05:48:46.078Z,3.30
2022-10-18T05:51:15.152Z,1.95
2022-10-18T05:53:44.255Z,1.88
2022-10-18T05:56:13.245Z,2.40
2022-10-18T05:58:42.352Z,1.38
2022-10-18T06:01:11.727Z,1.90
2022-10-18T06:03:40.627Z,1.73
2022-10-18T06:06:11.776Z,1.55
2022-10-18T06:08:41.847Z,1.85
2022-10-18T06:11:11.933Z,1.45
2022-10-18T06:13:44.576Z,1.90
2022-10-18T06:16:14.041Z,1.55
2022-10-18T06:18:43.590Z,1.80
2022-10-18T06:21:14.159Z,1.20
2022-10-18T06:23:43.191Z,1.42
2022-10-18T06:26:13.150Z,2.72
2022-10-18T06:28:42.285Z,2.05
2022-10-18T06:31:12.335Z,1.83
2022-10-18T06:33:41.808Z,2.58
2022-10-18T06:36:13.128Z,2.42
2022-10-18T06:38:43.438Z,2.60
2022-10-18T06:41:12.830Z,3.30
2022-10-18T06:43:42.248Z,2.70
2022-10-18T06:46:11.313Z,2.50
2022-10-18T06:48:40.951Z,2.30
2022-10-18T06:51:10.238Z,3.33
2022-10-18T06:53:43.920Z,2.63
2022-10-18T06:56:19.284Z,2.67
2022-10-18T06:58:48.406Z,2.60
2022-10-18T07:01:19.117Z,2.30
2022-10-18T07:03:49.823Z,2.17
2022-10-18T07:06:19.823Z,2.35
2022-10-18T07:08:49.610Z,1.92
2022-10-18T07:11:21.837Z,1.98
2022-10-18T07:16:20.542Z,1.67
2022-10-18T07:18:50.506Z,1.85
2022-10-18T07:21:20.843Z,2.10
2022-10-18T07:23:50.568Z,3.60
2022-10-18T07:26:22.174Z,2.30
2022-10-18T07:28:54.209Z,1.67
2022-10-18T07:31:23.970Z,2.22
2022-10-18T07:33:53.293Z,2.00
2022-10-18T07:36:22.896Z,2.08
2022-10-18T07:38:53.059Z,2.42
2022-10-18T07:41:23.729Z,1.90
2022-10-18T07:43:53.648Z,1.65
2022-10-18T07:46:23.366Z,2.30
2022-10-18T07:48:52.643Z,2.15
2022-10-18T07:51:22.247Z,2.58
2022-10-18T07:53:51.383Z,3.40
2022-10-18T07:56:21.960Z,2.60
2022-10-18T07:58:53.201Z,2.50
2022-10-18T08:01:22.759Z,3.20
2022-10-18T08:03:51.955Z,2.58
2022-10-18T08:06:21.744Z,3.50
2022-10-18T08:08:50.885Z,2.90
2022-10-18T08:11:21.044Z,3.15
2022-10-18T08:13:50.366Z,3.10
2022-10-18T08:16:22.361Z,3.47
2022-10-18T08:18:51.732Z,3.30
2022-10-18T08:21:21.443Z,2.78
2022-10-18T08:23:51.034Z,2.42
2022-10-18T08:26:21.222Z,3.55
2022-10-18T08:28:54.315Z,2.65
2022-10-18T08:31:34.319Z,3.33
2022-10-18T08:34:03.528Z,3.35
2022-10-18T08:36:32.600Z,5.22
2022-10-18T08:39:02.952Z,5.15
2022-10-18T08:41:44.782Z,4.05
2022-10-18T08:44:16.129Z,4.07
2022-10-18T08:46:48.524Z,4.00
2022-10-18T08:49:24.138Z,4.38
2022-10-18T08:51:53.639Z,4.68
2022-10-18T08:54:25.769Z,5.57
2022-10-18T08:56:59.247Z,5.43
2022-10-18T08:59:30.402Z,5.88
2022-10-18T09:02:04.453Z,7.53
2022-10-18T09:04:40.277Z,10.15
2022-10-18T09:07:24.085Z,10.10
2022-10-18T09:09:56.961Z,8.57
2022-10-18T09:12:33.274Z,8.18
2022-10-18T09:15:08.341Z,12.10
2022-10-18T09:17:42.165Z,10.65
2022-10-18T09:20:17.659Z,11.45
2022-10-18T09:22:53.466Z,12.45
2022-10-18T09:25:23.974Z,11.32
2022-10-18T09:27:54.543Z,6.78
2022-10-18T09:30:41.684Z,5.00
2022-10-18T09:33:18.224Z,4.50
2022-10-18T09:35:51.050Z,5.03
2022-10-18T09:38:21.924Z,4.07
2022-10-18T09:40:54.207Z,3.17
2022-10-18T09:43:25.331Z,2.80
2022-10-18T09:45:55.254Z,3.80
2022-10-18T09:48:28.077Z,3.25
2022-10-18T09:50:59.008Z,3.92
2022-10-18T09:53:33.983Z,5.40
2022-10-18T09:56:04.660Z,4.30
2022-10-18T09:58:41.579Z,5.85
2022-10-18T10:01:11.546Z,5.07
2022-10-18T10:03:42.957Z,4.20
2022-10-18T10:06:19.661Z,3.80
2022-10-18T10:08:50.457Z,4.10
2022-10-18T10:11:30.066Z,3.58
2022-10-18T10:13:59.943Z,4.30
2022-10-18T10:16:29.157Z,4.20
2022-10-18T10:18:59.577Z,3.20
2022-10-18T10:21:28.838Z,3.47
2022-10-18T10:23:59.820Z,2.95
2022-10-18T10:26:30.808Z,2.60
2022-10-18T10:28:59.820Z,3.45
2022-10-18T10:31:30.236Z,1.98
2022-10-18T10:34:05.162Z,2.40
2022-10-18T10:36:35.264Z,1.90
2022-10-18T10:39:05.641Z,2.08
2022-10-18T10:41:35.333Z,1.77
2022-10-18T10:44:06.019Z,1.80
2022-10-18T10:46:35.982Z,2.20
2022-10-18T10:52:08.313Z,1.65
2022-10-18T10:54:51.332Z,2.88
2022-10-18T10:57:24.349Z,1.05
2022-10-18T10:59:54.386Z,1.10
2022-10-18T11:02:24.640Z,1.08
2022-10-18T11:04:56.148Z,1.40
2022-10-18T11:07:27.837Z,2.03
2022-10-18T11:10:00.360Z,2.00
2022-10-18T11:12:33.496Z,1.00
2022-10-18T11:15:10.131Z,1.35
2022-10-18T11:17:44.052Z,1.27
2022-10-18T11:20:18.779Z,1.50
2022-10-18T11:22:51.558Z,1.65
2022-10-18T11:25:22.815Z,1.20
2022-10-18T11:27:56.763Z,1.50
2022-10-18T11:30:35.061Z,2.13
2022-10-18T11:33:08.446Z,0.95
2022-10-18T11:35:43.477Z,1.45
2022-10-18T11:38:20.276Z,1.50
2022-10-18T11:40:56.147Z,1.40
2022-10-18T11:43:30.290Z,1.95
2022-10-18T11:46:11.711Z,1.90
2022-10-18T11:48:45.104Z,1.27
2022-10-18T11:51:26.500Z,1.08
2022-10-18T11:54:17.054Z,1.30
2022-10-18T11:56:49.427Z,1.10
2022-10-18T12:01:53.598Z,1.17
2022-10-18T12:04:25.140Z,0.98
2022-10-18T12:06:57.015Z,1.20
2022-10-18T12:11:57.426Z,0.65
2022-10-18T12:14:28.845Z,0.80
2022-10-18T12:17:27.867Z,1.00
2022-10-18T12:19:49.603Z,0.95
2022-10-18T12:22:22.352Z,1.02
2022-10-18T12:24:51.556Z,0.80
2022-10-18T12:27:20.944Z,0.95
2022-10-18T12:29:52.640Z,0.75
2022-10-18T12:32:24.268Z,1.60
2022-10-18T12:34:54.931Z,1.42
2022-10-18T12:37:41.912Z,1.25
2022-10-18T12:40:20.238Z,1.00
2022-10-18T12:42:51.265Z,0.75
2022-10-18T12:45:28.218Z,0.63
2022-10-18T12:48:00.669Z,1.67
2022-10-18T12:50:36.885Z,1.17
2022-10-18T12:53:07.861Z,1.33
2022-10-18T12:55:39.522Z,1.20
2022-10-18T12:58:26.313Z,1.05
2022-10-18T13:01:01.317Z,1.95
2022-10-18T13:03:51.561Z,0.95
2022-10-18T13:06:20.982Z,1.05
2022-10-18T13:08:51.191Z,1.27
2022-10-18T13:11:33.484Z,1.05
2022-10-18T13:16:38.177Z,1.67
2022-10-18T13:19:19.673Z,1.30
2022-10-18T13:21:52.919Z,1.00
2022-10-18T13:24:26.146Z,1.67
2022-10-18T13:27:24.050Z,1.00
2022-10-18T13:29:57.363Z,1.58
2022-10-18T13:32:28.785Z,1.67
2022-10-18T13:34:57.961Z,1.55
2022-10-18T13:37:29.198Z,1.10
2022-10-18T13:40:13.288Z,2.17
2022-10-18T13:42:43.944Z,1.20
2022-10-18T13:45:46.000Z,1.30
2022-10-18T13:48:35.941Z,1.35
2022-10-18T13:51:13.415Z,1.73
2022-10-18T13:53:47.394Z,1.27
2022-10-18T13:56:31.253Z,1.30
2022-10-18T13:59:14.305Z,0.90
2022-10-18T14:02:03.527Z,0.93
2022-10-18T14:07:03.666Z,1.20
2022-10-18T14:09:55.003Z,0.90
2022-10-18T14:14:58.353Z,1.02
2022-10-18T14:17:31.706Z,1.42
2022-10-18T14:20:04.343Z,1.35
2022-10-18T14:22:36.891Z,1.70
2022-10-18T14:25:06.298Z,1.67
2022-10-18T14:27:36.030Z,1.10
2022-10-18T14:30:11.834Z,1.52
2022-10-18T14:32:44.635Z,1.40
2022-10-18T14:35:32.436Z,0.75
2022-10-18T14:38:02.227Z,1.40
2022-10-18T14:40:36.230Z,1.10
2022-10-18T14:43:07.027Z,1.60
2022-10-18T14:45:37.630Z,1.42
2022-10-18T14:48:07.533Z,1.52
2022-10-18T14:50:36.722Z,2.35
2022-10-18T14:53:09.018Z,5.10
2022-10-18T14:55:39.092Z,2.00
2022-10-18T14:58:11.690Z,1.27
2022-10-18T15:00:45.084Z,0.90
2022-10-18T15:03:18.696Z,1.10
2022-10-18T15:05:54.840Z,2.08
2022-10-18T15:08:25.271Z,0.95
2022-10-18T15:10:54.905Z,0.77
2022-10-18T15:13:25.238Z,1.23
2022-10-18T15:15:56.019Z,0.95
2022-10-18T15:18:26.195Z,1.73
2022-10-18T15:21:10.265Z,1.00
2022-10-18T15:23:39.385Z,1.50
2022-10-18T15:26:09.834Z,1.42
2022-10-18T15:28:40.498Z,0.77
2022-10-18T15:31:18.475Z,1.10
2022-10-18T15:33:47.449Z,1.05
2022-10-18T15:36:28.172Z,0.90
2022-10-18T15:39:05.939Z,1.02
2022-10-18T15:41:39.249Z,1.50
2022-10-18T15:44:13.260Z,1.05
2022-10-18T15:46:46.347Z,0.90
2022-10-18T15:49:34.084Z,1.38
2022-10-18T15:52:35.222Z,2.47
2022-10-18T15:57:34.755Z,0.90
2022-10-18T16:00:06.708Z,1.38
2022-10-18T16:02:46.133Z,1.10
2022-10-18T16:05:16.747Z,1.27
2022-10-18T16:07:45.743Z,1.52
2022-10-18T16:10:15.613Z,1.33
2022-10-18T16:12:44.800Z,1.65
2022-10-18T16:15:14.190Z,1.52
2022-10-18T16:17:43.564Z,1.42
2022-10-18T16:20:17.444Z,1.55
2022-10-18T16:22:46.767Z,1.20
2022-10-18T16:25:15.984Z,1.42
2022-10-18T16:27:45.367Z,1.17
2022-10-18T16:30:16.312Z,1.20
2022-10-18T16:32:46.514Z,1.23
2022-10-18T16:35:17.532Z,1.42
2022-10-18T16:37:46.829Z,1.30
2022-10-18T16:40:23.553Z,1.45
2022-10-18T16:42:53.209Z,1.38
2022-10-18T16:45:22.650Z,1.83
2022-10-18T16:47:51.819Z,3.08
2022-10-18T16:50:22.964Z,2.75
2022-10-18T16:52:51.940Z,3.70
2022-10-18T16:55:24.952Z,2.25
2022-10-18T16:57:53.986Z,1.90
2022-10-18T17:00:24.364Z,1.90
2022-10-18T17:02:53.548Z,1.73
2022-10-18T17:05:24.126Z,1.42
2022-10-18T17:07:53.190Z,1.73
2022-10-18T17:10:24.464Z,1.40
2022-10-18T17:12:53.959Z,1.42
2022-10-18T17:15:23.077Z,1.90
2022-10-18T17:17:52.028Z,2.50
2022-10-18T17:20:22.837Z,2.30
2022-10-18T17:22:53.726Z,2.00
2022-10-18T17:25:22.898Z,2.40
2022-10-18T17:27:52.200Z,2.00
2022-10-18T17:30:21.229Z,2.53
2022-10-18T17:32:50.248Z,1.75
2022-10-18T17:35:19.664Z,1.83
2022-10-18T17:37:49.917Z,2.08
2022-10-18T17:40:23.963Z,1.92
2022-10-18T17:42:53.075Z,1.50
2022-10-18T17:45:22.884Z,2.17
2022-10-18T17:47:51.972Z,1.83
2022-10-18T17:50:21.071Z,1.98
2022-10-18T17:52:50.309Z,1.42
2022-10-18T17:55:20.996Z,1.80
2022-10-18T17:57:50.139Z,1.95
2022-10-18T18:00:19.190Z,1.58
2022-10-18T18:02:48.333Z,5.55
2022-10-18T18:05:17.726Z,3.72
2022-10-18T18:07:47.693Z,2.75
2022-10-18T18:10:17.947Z,2.85
2022-10-18T18:12:48.543Z,2.13
2022-10-18T18:15:17.785Z,2.17
2022-10-18T18:17:56.737Z,3.13
2022-10-18T18:20:26.201Z,1.80
2022-10-18T18:22:55.175Z,2.10
2022-10-18T18:25:24.458Z,1.80
2022-10-18T18:27:55.778Z,2.00
2022-10-18T18:30:24.934Z,2.25
2022-10-18T18:32:53.973Z,2.03
2022-10-18T18:35:22.876Z,1.67
2022-10-18T18:37:52.095Z,1.80
2022-10-18T18:40:21.205Z,1.90
2022-10-18T18:43:07.212Z,2.45
2022-10-18T18:45:40.747Z,2.83
2022-10-18T18:48:09.990Z,2.10
2022-10-18T19:29:36.969Z,2.80
2022-10-18T19:32:07.253Z,2.95
2022-10-18T19:34:36.956Z,2.58
2022-10-18T19:37:06.498Z,3.33
2022-10-18T19:39:36.189Z,3.38
2022-10-18T19:42:06.400Z,2.60
2022-10-18T19:44:37.612Z,3.47
2022-10-18T19:47:07.249Z,3.00
2022-10-18T19:49:38.523Z,3.05
2022-10-18T19:52:08.175Z,3.45
2022-10-18T19:54:37.252Z,2.08
2022-10-18T19:57:06.945Z,2.45
2022-10-18T19:59:37.644Z,1.67
2022-10-18T20:02:06.818Z,1.35
2022-10-18T20:04:38.327Z,1.38
2022-10-18T20:07:07.831Z,0.90
2022-10-18T20:09:37.213Z,1.75
2022-10-18T20:12:06.693Z,1.50
2022-10-18T20:14:37.575Z,1.92
2022-10-18T20:17:06.905Z,1.40
2022-10-18T20:19:35.901Z,2.08
2022-10-18T20:22:05.057Z,1.90
2022-10-18T20:24:36.925Z,2.20
2022-10-18T20:27:07.411Z,4.03
2022-10-18T20:29:38.064Z,2.10
2022-10-18T20:32:08.844Z,2.97
2022-10-18T20:34:38.492Z,1.73
2022-10-18T20:37:08.652Z,1.52
2022-10-18T20:39:40.848Z,2.55
2022-10-18T20:44:43.578Z,1.55
2022-10-18T20:47:13.069Z,2.72
2022-10-18T20:49:43.341Z,2.47
2022-10-18T20:52:13.061Z,2.60
2022-10-18T20:54:43.331Z,2.00
2022-10-18T20:57:13.163Z,1.38
2022-10-18T20:59:44.542Z,2.20
2022-10-18T21:02:14.774Z,2.58
2022-10-18T21:04:44.770Z,1.83
2022-10-18T21:07:16.489Z,2.22
2022-10-18T21:09:46.919Z,2.75
2022-10-18T21:12:19.858Z,2.10
2022-10-18T21:14:51.429Z,1.60
2022-10-18T21:17:21.131Z,1.73
2022-10-18T21:19:50.995Z,2.22
2022-10-18T21:22:20.982Z,1.83
2022-10-18T21:24:53.000Z,1.20
2022-10-18T21:29:54.113Z,1.42
2022-10-18T21:32:24.488Z,2.00
2022-10-18T21:34:54.819Z,2.55
2022-10-18T21:37:28.597Z,2.30
2022-10-18T21:40:00.553Z,2.00
2022-10-18T21:42:30.329Z,2.05
2022-10-18T21:45:01.671Z,1.70
2022-10-18T21:47:31.512Z,2.00
2022-10-18T21:50:01.461Z,1.63
2022-10-18T21:52:34.705Z,2.20
2022-10-18T21:55:07.406Z,2.80
2022-10-18T22:00:09.008Z,2.90
2022-10-18T22:02:38.794Z,2.70
2022-10-18T22:05:11.311Z,1.63
2022-10-18T22:07:41.953Z,1.42
2022-10-18T22:10:12.332Z,1.08
2022-10-18T22:12:41.966Z,1.70
2022-10-18T22:15:16.278Z,1.08
2022-10-18T22:17:46.481Z,1.08
2022-10-18T22:20:17.741Z,1.35
2022-10-18T22:22:47.813Z,1.70
2022-10-18T22:25:18.024Z,1.77
2022-10-18T22:27:49.361Z,1.95
2022-10-18T22:30:20.988Z,2.03
2022-10-18T22:32:52.612Z,2.30
2022-10-18T22:35:23.037Z,2.58
2022-10-18T22:37:58.912Z,1.42
2022-10-18T22:40:29.237Z,2.53
2022-10-18T22:42:59.881Z,1.50
2022-10-18T22:45:30.778Z,1.70
2022-10-18T22:48:00.903Z,1.95
2022-10-18T22:50:31.343Z,2.97
2022-10-18T22:53:01.357Z,2.85
2022-10-18T22:55:32.093Z,1.98
2022-10-18T22:58:04.950Z,1.00
2022-10-18T23:03:07.405Z,1.90
2022-10-18T23:05:40.054Z,1.58
2022-10-18T23:08:17.570Z,1.80
2022-10-18T23:10:47.774Z,1.60
2022-10-18T23:13:17.612Z,2.22
2022-10-18T23:15:49.113Z,2.22
2022-10-18T23:18:19.296Z,1.65
2022-10-18T23:20:50.324Z,1.60
2022-10-18T23:23:20.456Z,1.63
2022-10-18T23:25:55.695Z,2.53
2022-10-18T23:28:26.517Z,1.73
2022-10-18T23:30:58.683Z,1.90
2022-10-18T23:33:28.287Z,1.80
2022-10-18T23:36:01.365Z,1.45
2022-10-18T23:38:31.467Z,1.60
2022-10-18T23:41:01.630Z,1.77
2022-10-18T23:43:32.825Z,1.60
2022-10-18T23:46:04.526Z,1.55
2022-10-18T23:48:34.936Z,1.63
2022-10-18T23:51:05.161Z,1.50
2022-10-18T23:53:34.423Z,1.23
2022-10-18T23:56:04.911Z,1.90
2022-10-18T23:58:35.167Z,1.30
